Time;durP1;ratioP1;P1;durP2;ratioP2;P2;SDS_P1;SDS_P2;PMS_P1;PMS_P2;Temp;Humidity;BMP_temperature;BMP_pressure;BME280_temperature;BME280_humidity;BME280_pressure;Samples;Min_cycle;Max_cycle;Signal;HPM_P1;HPM_P2
2022/02/19 00:01:08;;;;;;;3.20;1.70;;;8.20;82.30;;;;;;5032259;28;20419;-90
2022/02/19 00:03:34;;;;;;;12.83;1.80;;;8.10;82.50;;;;;;5031743;28;20180;-89
2022/02/19 00:05:59;;;;;;;4.27;1.53;;;8.00;82.80;;;;;;5032351;28;20192;-88
2022/02/19 00:08:30;;;;;;;6.93;1.77;;;8.00;83.10;;;;;;5032131;28;20271;-90
2022/02/19 00:10:55;;;;;;;6.20;1.60;;;8.00;82.90;;;;;;5031828;28;20176;-90
2022/02/19 00:13:22;;;;;;;3.83;1.17;;;7.90;83.10;;;;;;5030697;28;20426;-90
2022/02/19 00:15:49;;;;;;;6.30;1.90;;;7.90;82.90;;;;;;5046064;28;20219;-89
2022/02/19 00:18:15;;;;;;;11.63;2.40;;;7.80;83.00;;;;;;5050578;28;20840;-90
2022/02/19 00:20:40;;;;;;;8.37;2.10;;;7.80;82.20;;;;;;5050889;28;20446;-89
2022/02/19 00:23:06;;;;;;;5.60;1.67;;;7.80;81.60;;;;;;5047268;28;20175;-90
2022/02/19 00:25:31;;;;;;;5.93;1.50;;;7.80;81.20;;;;;;5051358;28;20249;-90
2022/02/19 00:27:57;;;;;;;4.70;1.70;;;7.90;80.90;;;;;;5051631;28;20757;-90
2022/02/19 00:30:22;;;;;;;6.70;2.00;;;7.80;80.60;;;;;;5051437;28;20176;-88
2022/02/19 00:32:48;;;;;;;3.70;1.80;;;7.80;80.30;;;;;;5051862;28;20555;-91
2022/02/19 00:35:14;;;;;;;7.20;2.20;;;7.80;79.90;;;;;;5039489;28;20196;-89
2022/02/19 00:37:40;;;;;;;11.93;2.37;;;7.70;79.60;;;;;;5031476;28;21047;-90
2022/02/19 00:40:06;;;;;;;3.60;1.60;;;7.80;79.30;;;;;;5031571;28;20188;-90
2022/02/19 00:42:31;;;;;;;9.53;1.90;;;7.70;79.20;;;;;;5030061;28;20173;-91
2022/02/19 00:44:57;;;;;;;3.80;1.90;;;7.80;79.00;;;;;;5031020;28;20497;-89
2022/02/19 00:47:22;;;;;;;7.03;1.93;;;7.80;78.70;;;;;;5031162;28;20866;-89
2022/02/19 00:49:48;;;;;;;3.90;1.97;;;7.80;78.40;;;;;;5030837;28;20184;-90
2022/02/19 00:52:14;;;;;;;2.50;1.30;;;7.70;78.10;;;;;;5031339;28;20227;-90
2022/02/19 00:54:39;;;;;;;9.17;1.80;;;7.70;77.60;;;;;;5031727;28;20211;-89
2022/02/19 00:57:05;;;;;;;10.57;1.93;;;7.70;77.40;;;;;;5041212;28;20207;-90
2022/02/19 00:59:30;;;;;;;4.10;1.30;;;7.70;77.20;;;;;;5051122;28;20187;-90
2022/02/19 01:01:55;;;;;;;5.70;1.60;;;7.70;76.90;;;;;;5050601;28;20240;-90
2022/02/19 01:04:21;;;;;;;5.40;1.47;;;7.70;76.80;;;;;;5051036;28;20540;-90
2022/02/19 01:06:46;;;;;;;3.80;1.40;;;7.80;76.60;;;;;;5050755;28;20211;-89
2022/02/19 01:09:12;;;;;;;6.20;1.83;;;7.70;76.80;;;;;;5051012;28;20179;-89
2022/02/19 01:11:40;;;;;;;5.43;1.73;;;7.70;76.70;;;;;;5050912;28;20172;-90
2022/02/19 01:14:09;;;;;;;18.97;1.83;;;7.70;76.90;;;;;;5051048;28;20180;-90
2022/02/19 01:16:35;;;;;;;4.57;2.17;;;7.60;77.40;;;;;;5050048;28;21089;-90
2022/02/19 01:19:01;;;;;;;5.83;1.70;;;7.60;77.60;;;;;;5050448;28;20410;-91
2022/02/19 01:21:26;;;;;;;6.93;1.97;;;7.50;78.10;;;;;;5050927;28;20467;-91
2022/02/19 01:23:52;;;;;;;4.70;1.40;;;7.50;78.20;;;;;;5050714;28;20198;-90
2022/02/19 01:26:17;;;;;;;4.03;1.60;;;7.50;78.30;;;;;;5050202;28;20203;-89
2022/02/19 01:28:43;;;;;;;8.53;1.60;;;7.40;78.50;;;;;;5050352;28;20180;-89
2022/02/19 01:31:09;;;;;;;3.77;1.40;;;7.40;78.70;;;;;;5040548;28;20192;-90
2022/02/19 01:33:35;;;;;;;4.00;1.40;;;7.40;78.90;;;;;;5028783;28;20607;-89
2022/02/19 01:36:00;;;;;;;9.87;1.90;;;7.40;79.00;;;;;;5029146;28;20594;-89
2022/02/19 01:38:28;;;;;;;6.60;2.47;;;7.40;79.30;;;;;;5063784;28;20175;-90
2022/02/19 01:40:53;;;;;;;5.10;1.53;;;7.30;79.80;;;;;;5063783;28;20172;-89
2022/02/19 01:43:19;;;;;;;4.77;1.87;;;7.30;79.90;;;;;;5031325;28;20423;-90
2022/02/19 01:45:47;;;;;;;8.63;1.47;;;7.30;80.30;;;;;;5063595;28;20196;-89
2022/02/19 01:48:12;;;;;;;10.03;2.40;;;7.30;80.70;;;;;;5063735;28;20573;-90
2022/02/19 01:50:38;;;;;;;15.03;2.80;;;7.30;80.70;;;;;;5063573;28;20416;-89
2022/02/19 01:53:03;;;;;;;9.00;2.30;;;7.40;80.40;;;;;;5063720;28;20203;-90
2022/02/19 01:55:29;;;;;;;3.17;1.30;;;7.50;80.10;;;;;;5063937;28;20239;-89
2022/02/19 01:57:56;;;;;;;8.37;1.63;;;7.50;80.40;;;;;;5063289;28;20208;-90
2022/02/19 02:00:21;;;;;;;3.50;1.57;;;7.40;80.80;;;;;;5064282;28;20235;-88
2022/02/19 02:02:49;;;;;;;8.23;1.60;;;7.40;81.10;;;;;;5064615;28;20909;-90
2022/02/19 02:05:18;;;;;;;5.73;1.97;;;7.40;81.70;;;;;;5064224;28;20193;-89
2022/02/19 02:07:44;;;;;;;5.60;1.80;;;7.30;82.50;;;;;;5063661;28;20423;-90
2022/02/19 02:10:10;;;;;;;4.00;1.80;;;7.20;83.10;;;;;;5032087;28;20476;-91
2022/02/19 02:12:35;;;;;;;7.43;2.03;;;7.20;83.50;;;;;;5063201;28;20427;-88
2022/02/19 02:15:01;;;;;;;2.53;1.70;;;7.20;83.30;;;;;;5062736;28;20232;-88
2022/02/19 02:17:29;;;;;;;7.63;2.10;;;7.10;83.60;;;;;;5030304;28;20241;-90
2022/02/19 02:19:54;;;;;;;4.10;1.63;;;7.10;84.10;;;;;;5063515;28;20271;-90
2022/02/19 02:22:20;;;;;;;4.53;1.60;;;7.00;84.40;;;;;;5063394;28;20561;-89
2022/02/19 02:24:47;;;;;;;3.67;1.60;;;7.00;84.80;;;;;;5063905;28;20197;-90
2022/02/19 02:27:12;;;;;;;7.47;2.10;;;6.90;85.20;;;;;;5063562;28;20275;-90
2022/02/19 02:29:47;;;;;;;7.60;1.80;;;6.90;85.30;;;;;;5064107;28;20942;-89
2022/02/19 02:32:14;;;;;;;4.43;1.27;;;6.90;85.70;;;;;;5063836;28;20176;-90
2022/02/19 02:34:56;;;;;;;11.40;1.90;;;6.80;85.50;;;;;;5059600;28;20447;-89
2022/02/19 02:37:25;;;;;;;5.30;1.47;;;6.80;85.60;;;;;;5030321;28;20451;-91
2022/02/19 02:39:51;;;;;;;6.53;2.07;;;6.80;85.40;;;;;;5030618;28;20441;-90
2022/02/19 02:42:20;;;;;;;4.20;1.40;;;6.80;85.30;;;;;;5030310;28;20471;-90
2022/02/19 02:44:47;;;;;;;3.43;1.33;;;6.90;85.30;;;;;;5030737;28;20438;-89
2022/02/19 02:47:13;;;;;;;2.90;1.50;;;6.80;85.50;;;;;;5033883;28;20422;-90
2022/02/19 02:49:42;;;;;;;3.63;1.13;;;6.70;85.70;;;;;;5036298;28;20477;-90
2022/02/19 02:52:10;;;;;;;3.70;1.80;;;6.70;85.80;;;;;;5036945;28;20415;-89
2022/02/19 02:54:36;;;;;;;8.80;1.40;;;6.70;86.00;;;;;;5035000;28;20470;-91
2022/02/19 02:57:02;;;;;;;3.73;1.50;;;6.70;86.00;;;;;;5034358;28;20549;-90
2022/02/19 02:59:30;;;;;;;4.90;1.37;;;6.60;86.00;;;;;;5034444;28;20472;-90
2022/02/19 03:01:56;;;;;;;2.10;1.20;;;6.60;86.00;;;;;;5033919;28;20419;-89
2022/02/19 03:04:21;;;;;;;4.00;1.77;;;6.60;86.00;;;;;;5034351;28;20478;-89
2022/02/19 03:06:47;;;;;;;1.73;1.57;;;6.60;85.60;;;;;;5038991;28;20182;-90
2022/02/19 03:09:12;;;;;;;1.37;1.10;;;6.50;85.60;;;;;;5045500;28;20330;-91
2022/02/19 03:11:38;;;;;;;4.37;1.50;;;6.50;85.60;;;;;;5054002;28;20580;-91
2022/02/19 03:14:07;;;;;;;2.97;1.50;;;6.50;85.70;;;;;;5054178;28;20266;-90
2022/02/19 03:16:33;;;;;;;3.63;1.47;;;6.40;85.80;;;;;;5049570;28;20866;-91
2022/02/19 03:18:59;;;;;;;10.30;2.53;;;6.40;85.80;;;;;;5041931;28;20415;-88
2022/02/19 03:21:27;;;;;;;13.03;2.57;;;6.40;86.00;;;;;;5047329;28;20989;-89
2022/02/19 03:23:54;;;;;;;3.47;1.30;;;6.40;85.60;;;;;;5052856;28;20176;-88
2022/02/19 03:26:20;;;;;;;4.40;1.63;;;6.30;85.60;;;;;;5053443;28;21010;-91
2022/02/19 03:28:45;;;;;;;3.43;1.53;;;6.30;85.80;;;;;;5053733;28;20414;-87
2022/02/19 03:31:11;;;;;;;4.40;1.50;;;6.30;85.20;;;;;;5052990;28;20492;-90
2022/02/19 03:33:40;;;;;;;2.60;1.40;;;6.30;85.10;;;;;;5053128;28;20183;-90
2022/02/19 03:36:05;;;;;;;2.00;1.60;;;6.20;85.30;;;;;;5034632;28;20235;-92
2022/02/19 03:38:31;;;;;;;4.40;2.13;;;6.10;85.40;;;;;;5033407;28;20416;-90
2022/02/19 03:40:56;;;;;;;11.30;1.60;;;6.20;85.00;;;;;;5032498;28;20552;-91
2022/02/19 03:43:22;;;;;;;6.43;1.50;;;6.10;85.10;;;;;;5033086;28;20184;-90
2022/02/19 03:45:47;;;;;;;3.47;1.50;;;6.10;85.10;;;;;;5032808;28;20258;-91
2022/02/19 03:48:13;;;;;;;4.93;1.80;;;6.10;84.90;;;;;;5031657;28;20665;-90
2022/02/19 03:50:39;;;;;;;6.10;1.40;;;6.00;85.10;;;;;;5033333;28;20179;-90
2022/02/19 03:53:04;;;;;;;5.83;1.20;;;6.00;85.10;;;;;;5032507;28;20203;-91
2022/02/19 03:55:30;;;;;;;3.20;1.40;;;6.00;85.50;;;;;;5031104;28;20299;-90
2022/02/19 03:57:56;;;;;;;2.60;1.53;;;6.00;85.80;;;;;;5033999;28;20212;-92
2022/02/19 04:00:22;;;;;;;1.63;1.53;;;5.90;85.90;;;;;;5032344;28;20192;-90
2022/02/19 04:02:48;;;;;;;2.97;1.37;;;5.90;86.10;;;;;;5033070;28;20416;-92
2022/02/19 04:05:15;;;;;;;1.43;1.07;;;5.90;86.30;;;;;;5031623;28;20497;-90
2022/02/19 04:07:42;;;;;;;5.20;1.53;;;5.90;86.60;;;;;;5031623;28;20173;-92
2022/02/19 04:10:08;;;;;;;4.47;1.47;;;5.80;86.90;;;;;;5032678;28;20427;-92
2022/02/19 04:12:38;;;;;;;10.63;1.20;;;5.80;86.80;;;;;;5032647;28;20420;-89
2022/02/19 04:15:04;;;;;;;3.00;1.57;;;5.90;86.50;;;;;;5031750;28;20502;-92
2022/02/19 04:17:29;;;;;;;12.30;2.20;;;5.80;86.60;;;;;;5032528;28;20510;-91
2022/02/19 04:19:59;;;;;;;4.90;2.00;;;5.80;86.60;;;;;;5032249;28;20471;-93
2022/02/19 04:22:25;;;;;;;2.60;1.20;;;5.80;86.70;;;;;;5032491;28;20226;-91
2022/02/19 04:24:51;;;;;;;7.97;2.10;;;5.80;86.70;;;;;;5041636;28;20422;-91
2022/02/19 04:27:17;;;;;;;6.33;1.30;;;5.80;86.70;;;;;;5052665;28;20186;-90
2022/02/19 04:29:46;;;;;;;6.30;1.57;;;5.80;86.60;;;;;;5052739;28;20415;-93
2022/02/19 04:32:11;;;;;;;2.30;1.10;;;5.90;86.50;;;;;;5083815;22;20496;-85
2022/02/19 04:34:38;;;;;;;3.27;1.13;;;5.90;86.50;;;;;;5055723;28;20420;-84
2022/02/19 04:37:04;;;;;;;1.80;1.10;;;5.90;86.70;;;;;;5055731;28;20309;-85
2022/02/19 04:39:29;;;;;;;6.63;1.73;;;5.80;86.90;;;;;;5055666;28;20418;-84
2022/02/19 04:41:55;;;;;;;3.90;1.30;;;5.80;86.80;;;;;;5055270;28;20436;-84
2022/02/19 04:44:20;;;;;;;10.27;1.57;;;5.70;86.90;;;;;;5072998;28;20515;-85
2022/02/19 04:46:46;;;;;;;4.00;1.20;;;5.80;86.40;;;;;;5073392;28;20175;-85
2022/02/19 04:49:11;;;;;;;2.10;1.67;;;5.80;86.20;;;;;;5073351;28;20167;-85
2022/02/19 04:51:38;;;;;;;7.17;1.43;;;5.80;86.00;;;;;;5055320;28;20202;-84
2022/02/19 04:54:04;;;;;;;3.50;1.30;;;5.80;86.40;;;;;;5055088;28;20174;-85
2022/02/19 04:56:31;;;;;;;5.90;1.47;;;5.80;86.30;;;;;;5055157;28;20832;-85
2022/02/19 04:58:57;;;;;;;14.57;1.90;;;5.70;86.40;;;;;;5072980;28;20240;-85
2022/02/19 05:01:22;;;;;;;4.13;1.43;;;5.70;86.30;;;;;;5055164;28;20767;-84
2022/02/19 05:03:48;;;;;;;2.23;1.17;;;5.70;86.40;;;;;;5054815;28;20176;-84
2022/02/19 05:06:13;;;;;;;3.63;1.10;;;5.70;86.20;;;;;;5054803;28;20309;-84
2022/02/19 05:08:40;;;;;;;2.10;1.40;;;5.70;86.00;;;;;;5072586;28;20213;-84
2022/02/19 05:11:06;;;;;;;4.90;1.37;;;5.60;86.00;;;;;;5072056;28;20182;-84
2022/02/19 05:13:31;;;;;;;6.53;1.37;;;5.70;85.60;;;;;;5054780;28;20430;-85
2022/02/19 05:15:57;;;;;;;4.77;1.20;;;5.80;85.60;;;;;;5055046;28;20179;-85
2022/02/19 05:18:22;;;;;;;5.33;2.20;;;5.70;85.60;;;;;;5054833;28;20626;-84
2022/02/19 05:20:48;;;;;;;2.47;1.20;;;5.70;85.60;;;;;;5072708;28;20206;-85
2022/02/19 05:23:14;;;;;;;3.40;1.50;;;5.70;85.60;;;;;;5054755;28;20187;-84
2022/02/19 05:25:41;;;;;;;8.30;1.20;;;5.60;85.80;;;;;;5054687;28;20175;-84
2022/02/19 05:28:07;;;;;;;1.60;1.30;;;5.60;86.00;;;;;;5054634;28;20182;-84
2022/02/19 05:30:34;;;;;;;2.73;2.00;;;5.60;86.50;;;;;;5054579;28;20413;-84
2022/02/19 05:32:59;;;;;;;2.50;1.30;;;5.50;86.80;;;;;;5054421;28;20471;-85
2022/02/19 05:35:24;;;;;;;1.80;1.40;;;5.50;87.00;;;;;;5054366;28;20492;-85
2022/02/19 05:37:50;;;;;;;2.97;1.57;;;5.40;87.20;;;;;;5055022;28;20666;-85
2022/02/19 05:40:16;;;;;;;3.67;1.30;;;5.50;87.30;;;;;;5054389;28;20174;-86
2022/02/19 05:42:41;;;;;;;5.70;1.77;;;5.50;87.50;;;;;;5054668;28;20255;-85
2022/02/19 05:45:07;;;;;;;2.60;1.63;;;5.50;87.60;;;;;;5054497;28;20703;-84
2022/02/19 05:47:32;;;;;;;1.47;1.30;;;5.50;87.80;;;;;;5054528;28;20725;-84
2022/02/19 05:49:58;;;;;;;1.47;1.43;;;5.50;88.00;;;;;;5072184;28;20492;-85
2022/02/19 05:52:24;;;;;;;1.53;1.20;;;5.40;88.10;;;;;;5054368;28;20195;-83
2022/02/19 05:54:53;;;;;;;5.60;1.50;;;5.50;87.80;;;;;;5054385;28;20186;-84
2022/02/19 05:57:19;;;;;;;5.60;1.60;;;5.50;87.80;;;;;;5072298;28;20538;-84
2022/02/19 05:59:45;;;;;;;3.10;1.70;;;5.40;88.10;;;;;;5054460;28;20406;-83
2022/02/19 06:02:29;;;;;;;2.90;1.43;;;5.40;88.10;;;;;;5054769;28;20436;-84
2022/02/19 06:04:55;;;;;;;6.13;1.27;;;5.40;88.00;;;;;;5054208;28;20394;-84
2022/02/19 06:07:21;;;;;;;3.80;1.53;;;5.40;88.00;;;;;;5054482;28;20478;-84
2022/02/19 06:09:46;;;;;;;3.27;1.23;;;5.40;88.00;;;;;;5072716;28;20312;-84
2022/02/19 06:12:12;;;;;;;3.30;1.30;;;5.40;87.90;;;;;;5054304;28;20704;-85
2022/02/19 06:14:37;;;;;;;4.03;1.67;;;5.40;87.90;;;;;;5054061;28;20183;-84
2022/02/19 06:17:03;;;;;;;5.47;1.20;;;5.40;87.80;;;;;;5054459;28;20194;-85
2022/02/19 06:19:29;;;;;;;2.03;1.80;;;5.40;87.80;;;;;;5054382;28;20167;-84
2022/02/19 06:21:54;;;;;;;1.97;1.33;;;5.40;87.70;;;;;;5056498;28;20452;-84
2022/02/19 06:24:20;;;;;;;2.03;1.87;;;5.30;87.80;;;;;;5058628;28;20217;-84
2022/02/19 06:26:46;;;;;;;6.40;1.47;;;5.30;87.70;;;;;;5058983;28;20175;-85
2022/02/19 06:29:11;;;;;;;2.53;1.17;;;5.30;87.50;;;;;;5064575;28;20179;-84
2022/02/19 06:31:37;;;;;;;1.77;1.27;;;5.40;87.20;;;;;;5057943;28;21798;-84
2022/02/19 06:34:02;;;;;;;1.53;1.50;;;5.40;87.00;;;;;;5057877;28;20183;-84
2022/02/19 06:36:28;;;;;;;4.00;1.60;;;5.40;87.00;;;;;;5058181;28;20614;-85
2022/02/19 06:38:53;;;;;;;1.83;1.30;;;5.40;86.90;;;;;;5057998;28;20175;-84
2022/02/19 06:41:19;;;;;;;2.87;1.30;;;5.40;87.10;;;;;;5058187;28;20171;-84
2022/02/19 06:43:44;;;;;;;7.90;1.20;;;5.40;86.90;;;;;;5058597;28;20543;-84
2022/02/19 06:46:10;;;;;;;10.40;1.63;;;5.40;87.00;;;;;;5058149;28;20257;-84
2022/02/19 06:48:35;;;;;;;7.67;1.60;;;5.40;87.20;;;;;;5062939;28;20259;-85
2022/02/19 06:51:01;;;;;;;1.63;1.13;;;5.40;87.50;;;;;;5058064;28;20187;-85
2022/02/19 06:53:27;;;;;;;1.77;1.37;;;5.40;87.70;;;;;;5057611;28;20666;-85
2022/02/19 06:55:53;;;;;;;3.73;1.10;;;5.40;87.50;;;;;;5057322;28;20210;-84
2022/02/19 06:58:18;;;;;;;2.13;1.17;;;5.40;87.50;;;;;;5057732;28;20183;-86
2022/02/19 07:00:44;;;;;;;8.10;1.30;;;5.40;87.10;;;;;;5057427;28;20534;-85
2022/02/19 07:03:09;;;;;;;1.87;1.30;;;5.40;86.90;;;;;;5057485;28;20217;-84
2022/02/19 07:05:35;;;;;;;2.50;1.17;;;5.40;86.80;;;;;;5057441;28;20177;-85
2022/02/19 07:08:00;;;;;;;3.77;3.07;;;5.50;86.40;;;;;;5057686;28;20171;-85
2022/02/19 07:10:27;;;;;;;3.20;1.70;;;5.50;86.30;;;;;;5075307;28;20583;-84
2022/02/19 07:12:56;;;;;;;3.23;1.50;;;5.50;86.10;;;;;;5058973;28;20203;-84
2022/02/19 07:15:21;;;;;;;3.73;1.50;;;5.50;86.10;;;;;;5056890;28;20520;-84
2022/02/19 07:17:52;;;;;;;7.50;1.90;;;5.50;86.00;;;;;;5068970;28;20535;-83
2022/02/19 07:20:23;;;;;;;3.73;1.67;;;5.50;85.90;;;;;;5070180;28;20270;-84
2022/02/19 07:22:49;;;;;;;3.13;1.60;;;5.60;86.00;;;;;;5074850;28;20466;-84
2022/02/19 07:25:16;;;;;;;4.30;2.07;;;5.60;86.20;;;;;;5076897;28;20420;-85
2022/02/19 07:27:43;;;;;;;2.90;1.67;;;5.60;86.00;;;;;;5062241;28;20420;-85
2022/02/19 07:30:13;;;;;;;4.50;2.17;;;5.70;86.20;;;;;;5078505;28;20412;-84
2022/02/19 07:32:39;;;;;;;5.77;1.30;;;5.70;86.20;;;;;;5076081;28;21215;-85
2022/02/19 07:35:07;;;;;;;3.50;1.43;;;5.80;86.00;;;;;;5077431;28;20795;-84
2022/02/19 07:37:33;;;;;;;10.13;1.27;;;5.80;85.80;;;;;;5095945;28;20498;-85
2022/02/19 07:39:59;;;;;;;1.60;1.17;;;5.80;85.80;;;;;;5076087;28;20545;-85
2022/02/19 07:42:24;;;;;;;4.50;1.40;;;5.80;85.80;;;;;;5056701;28;20873;-86
2022/02/19 07:44:52;;;;;;;2.80;1.60;;;5.90;86.10;;;;;;5056625;28;20187;-85
2022/02/19 07:47:35;;;;;;;4.87;1.60;;;5.90;85.90;;;;;;5057322;28;20179;-85
2022/02/19 07:58:18;;;;;;;2.57;1.43;;;6.00;86.80;;;;;;5060553;28;20460;-84
2022/02/19 08:00:44;;;;;;;3.83;1.37;;;6.10;86.90;;;;;;5057179;28;20414;-86
2022/02/19 08:03:09;;;;;;;2.80;1.50;;;6.10;86.90;;;;;;5051061;28;20434;-86
2022/02/19 08:05:35;;;;;;;4.50;1.50;;;6.10;87.10;;;;;;5043612;28;20437;-85
2022/02/19 08:08:00;;;;;;;5.60;1.63;;;6.10;87.20;;;;;;5046359;28;20191;-85
2022/02/19 08:10:26;;;;;;;1.90;1.30;;;6.10;87.50;;;;;;5054410;28;20265;-86
2022/02/19 08:12:51;;;;;;;7.10;1.60;;;6.10;87.20;;;;;;5056608;28;20206;-86
2022/02/19 08:15:17;;;;;;;3.67;1.60;;;6.10;87.30;;;;;;5056435;28;20732;-86
2022/02/19 08:17:42;;;;;;;5.33;1.60;;;6.10;87.10;;;;;;5056716;28;20211;-87
2022/02/19 08:20:08;;;;;;;2.23;1.20;;;6.20;87.00;;;;;;5058350;28;20229;-86
2022/02/19 08:22:34;;;;;;;7.33;1.50;;;6.20;87.20;;;;;;5055939;28;20227;-86
2022/02/19 08:24:59;;;;;;;1.80;1.40;;;6.30;87.50;;;;;;5054797;28;20190;-87
2022/02/19 08:27:25;;;;;;;3.77;1.47;;;6.40;87.20;;;;;;5065012;28;20186;-86
2022/02/19 08:29:51;;;;;;;6.57;1.40;;;6.40;87.00;;;;;;5069300;28;20252;-85
2022/02/19 08:32:16;;;;;;;5.10;1.37;;;6.40;87.00;;;;;;5050909;28;20306;-86
2022/02/19 08:34:42;;;;;;;4.30;1.80;;;6.50;87.20;;;;;;5054900;28;20525;-87
2022/02/19 08:37:07;;;;;;;4.20;1.40;;;6.50;87.10;;;;;;5053208;28;20656;-86
2022/02/19 08:39:33;;;;;;;2.40;1.73;;;6.60;87.30;;;;;;5050122;28;20183;-87
2022/02/19 08:41:59;;;;;;;7.20;1.50;;;6.70;86.80;;;;;;5055491;28;20205;-85
2022/02/19 08:44:24;;;;;;;6.03;1.67;;;6.70;87.00;;;;;;5055762;28;20581;-85
2022/02/19 08:46:50;;;;;;;3.83;1.40;;;6.70;86.70;;;;;;5072964;28;20171;-86
2022/02/19 08:49:15;;;;;;;7.53;1.63;;;6.70;86.30;;;;;;5055191;28;20661;-86
2022/02/19 08:51:41;;;;;;;3.57;1.70;;;6.70;86.60;;;;;;5055319;28;20195;-86
2022/02/19 08:54:07;;;;;;;5.60;1.70;;;6.70;86.60;;;;;;5055452;28;20178;-85
2022/02/19 08:56:32;;;;;;;7.10;1.57;;;6.80;86.70;;;;;;5053379;28;20279;-86
2022/02/19 08:58:58;;;;;;;6.90;1.63;;;6.80;86.00;;;;;;5035749;28;20422;-86
2022/02/19 09:01:27;;;;;;;2.60;1.13;;;6.90;86.40;;;;;;5064357;28;20253;-86
2022/02/19 09:03:53;;;;;;;3.57;1.60;;;6.90;85.60;;;;;;5065579;28;20175;-86
2022/02/19 09:06:18;;;;;;;5.47;1.63;;;7.00;85.70;;;;;;5054811;28;20961;-86
2022/02/19 09:08:46;;;;;;;4.73;1.60;;;7.00;85.40;;;;;;5051608;28;20179;-86
2022/02/19 09:11:11;;;;;;;2.83;1.50;;;6.90;85.50;;;;;;5054686;28;20606;-86
2022/02/19 09:13:37;;;;;;;4.63;1.43;;;6.90;85.70;;;;;;5034765;28;20434;-85
2022/02/19 09:16:02;;;;;;;3.23;1.53;;;6.80;85.60;;;;;;5066462;28;20532;-85
2022/02/19 09:18:28;;;;;;;4.63;1.30;;;6.90;85.70;;;;;;5053525;28;20668;-87
2022/02/19 09:20:53;;;;;;;4.40;1.80;;;6.90;85.70;;;;;;5054206;28;20171;-86
2022/02/19 09:23:19;;;;;;;7.73;2.60;;;6.80;85.70;;;;;;5054769;28;20225;-86
2022/02/19 09:25:44;;;;;;;1.87;1.60;;;6.80;85.90;;;;;;5055574;28;20182;-85
2022/02/19 09:28:10;;;;;;;5.87;2.60;;;6.90;86.20;;;;;;5055116;28;20175;-86
2022/02/19 09:30:35;;;;;;;3.53;2.37;;;6.90;85.60;;;;;;5055203;28;20183;-86
2022/02/19 09:33:02;;;;;;;6.17;1.80;;;7.10;85.80;;;;;;5048812;28;20239;-85
2022/02/19 09:35:28;;;;;;;5.77;2.03;;;7.30;85.70;;;;;;5055781;28;20440;-85
2022/02/19 09:37:54;;;;;;;9.13;2.10;;;7.40;84.60;;;;;;5072334;28;21162;-86
2022/02/19 09:40:19;;;;;;;2.00;1.13;;;7.50;83.70;;;;;;5065978;28;20174;-84
2022/02/19 09:42:45;;;;;;;1.93;1.50;;;7.50;83.70;;;;;;5053976;28;20725;-85
2022/02/19 09:45:11;;;;;;;3.10;1.13;;;7.70;83.70;;;;;;5054310;28;20175;-85
2022/02/19 09:47:38;;;;;;;4.80;1.47;;;7.70;83.10;;;;;;5054455;28;20416;-85
2022/02/19 09:50:04;;;;;;;7.60;1.30;;;7.80;82.40;;;;;;5072288;28;20257;-86
2022/02/19 09:52:30;;;;;;;5.97;1.30;;;7.70;81.70;;;;;;5071895;28;20804;-85
2022/02/19 09:54:58;;;;;;;1.93;1.13;;;7.90;82.20;;;;;;5054294;28;20409;-86
2022/02/19 09:57:24;;;;;;;1.87;1.67;;;7.80;81.50;;;;;;5057083;28;20576;-85
2022/02/19 09:59:49;;;;;;;2.63;1.33;;;7.70;81.90;;;;;;5058179;28;20409;-85
2022/02/19 10:02:15;;;;;;;4.50;1.30;;;7.70;81.80;;;;;;5076215;28;20202;-85
2022/02/19 10:04:44;;;;;;;11.53;1.40;;;7.50;81.60;;;;;;5058411;28;20264;-85
2022/02/19 10:07:15;;;;;;;8.73;1.60;;;7.40;81.70;;;;;;5058271;28;20190;-86
2022/02/19 10:09:42;;;;;;;6.53;2.63;;;7.30;82.00;;;;;;5058382;28;20416;-85
2022/02/19 10:12:10;;;;;;;2.23;1.40;;;7.30;82.60;;;;;;5058336;28;20523;-85
2022/02/19 10:14:37;;;;;;;8.03;1.70;;;7.30;82.30;;;;;;5057721;28;20421;-86
2022/02/19 10:17:11;;;;;;;1.23;1.13;;;7.20;81.00;;;;;;5057797;28;20514;-86
2022/02/19 10:19:54;;;;;;;5.07;1.53;;;7.30;81.30;;;;;;5058296;28;20458;-85
2022/02/19 10:22:23;;;;;;;4.80;1.23;;;7.30;81.10;;;;;;5057783;28;20433;-86
2022/02/19 10:24:52;;;;;;;10.00;1.50;;;7.20;81.60;;;;;;5066386;28;20579;-85
2022/02/19 10:27:18;;;;;;;6.10;1.73;;;7.20;81.90;;;;;;5075174;28;20448;-86
2022/02/19 10:29:55;;;;;;;2.30;1.43;;;7.20;82.00;;;;;;5051695;28;20865;-86
2022/02/19 10:32:22;;;;;;;4.30;1.60;;;7.30;82.30;;;;;;5057690;28;20228;-86
2022/02/19 10:35:05;;;;;;;2.87;1.50;;;7.30;82.40;;;;;;5057721;28;20417;-85
2022/02/19 10:37:50;;;;;;;2.87;1.50;;;7.30;81.70;;;;;;5057331;28;20493;-86
2022/02/19 10:40:32;;;;;;;4.03;1.30;;;7.30;82.00;;;;;;5057365;28;20416;-86
2022/02/19 10:43:02;;;;;;;4.53;1.40;;;7.30;81.60;;;;;;5057604;28;20438;-86
2022/02/19 10:45:28;;;;;;;2.87;1.20;;;7.30;81.80;;;;;;5059054;28;20418;-85
2022/02/19 10:48:17;;;;;;;4.70;1.60;;;7.30;81.90;;;;;;5058531;28;20429;-86
2022/02/19 10:50:45;;;;;;;4.50;1.33;;;7.30;82.00;;;;;;5058083;28;20409;-85
2022/02/19 10:53:24;;;;;;;6.00;1.60;;;7.30;81.90;;;;;;5077560;28;20460;-86
2022/02/19 10:55:49;;;;;;;1.50;1.20;;;7.30;81.80;;;;;;5078828;28;20397;-86
2022/02/19 10:58:15;;;;;;;6.50;1.80;;;7.20;81.80;;;;;;5058149;28;20449;-86
2022/02/19 11:00:42;;;;;;;4.07;1.80;;;7.20;81.80;;;;;;5058300;28;20171;-86
2022/02/19 11:03:09;;;;;;;8.30;1.53;;;7.10;82.10;;;;;;5058439;28;21167;-85
2022/02/19 11:05:36;;;;;;;7.40;1.47;;;7.10;82.40;;;;;;5076782;28;20406;-86
2022/02/19 11:08:02;;;;;;;3.20;1.33;;;7.00;82.60;;;;;;5057314;28;20439;-85
2022/02/19 11:10:28;;;;;;;3.30;1.57;;;7.00;82.80;;;;;;5075485;28;20405;-86
2022/02/19 11:12:55;;;;;;;4.40;1.90;;;6.90;83.10;;;;;;5057385;28;20472;-86
2022/02/19 11:15:23;;;;;;;5.27;1.73;;;6.90;84.00;;;;;;5057481;28;20414;-87
2022/02/19 11:17:49;;;;;;;3.97;1.63;;;6.90;84.00;;;;;;5057744;28;20449;-85
2022/02/19 11:20:16;;;;;;;5.27;1.87;;;6.90;84.10;;;;;;5075698;28;20401;-86
2022/02/19 11:22:43;;;;;;;5.53;1.70;;;6.90;83.60;;;;;;5057691;28;20570;-86
2022/02/19 11:25:11;;;;;;;2.83;1.93;;;6.90;83.20;;;;;;5075184;28;20470;-86
2022/02/19 11:27:53;;;;;;;3.40;1.60;;;6.90;83.50;;;;;;5057803;28;20425;-86
2022/02/19 11:30:20;;;;;;;8.37;2.30;;;6.90;83.80;;;;;;5057465;28;20413;-86
2022/02/19 11:32:48;;;;;;;7.40;1.50;;;6.90;84.00;;;;;;5056989;28;20552;-85
2022/02/19 11:35:34;;;;;;;5.67;1.57;;;6.90;84.60;;;;;;5056806;28;20406;-86
2022/02/19 11:38:00;;;;;;;3.10;2.13;;;6.90;84.90;;;;;;5057062;28;20457;-84
2022/02/19 11:40:26;;;;;;;2.33;1.50;;;6.90;85.30;;;;;;5057394;28;20422;-85
2022/02/19 11:42:53;;;;;;;5.30;2.00;;;6.90;85.40;;;;;;5074722;28;20947;-84
2022/02/19 11:45:23;;;;;;;2.90;1.60;;;6.90;84.80;;;;;;5057324;28;20174;-86
2022/02/19 11:47:50;;;;;;;5.10;1.63;;;7.00;84.80;;;;;;5056402;28;20522;-86
2022/02/19 11:50:27;;;;;;;4.13;1.50;;;7.10;84.90;;;;;;5056892;28;20423;-85
2022/02/19 11:53:11;;;;;;;5.80;1.80;;;7.10;84.50;;;;;;5074129;28;20897;-85
2022/02/19 11:55:41;;;;;;;8.07;2.40;;;7.20;84.20;;;;;;5059140;28;20416;-86
2022/02/19 11:58:13;;;;;;;2.90;1.53;;;7.30;84.20;;;;;;5057453;28;20445;-86
2022/02/19 12:00:42;;;;;;;4.60;1.60;;;7.40;83.70;;;;;;5056316;28;20418;-86
2022/02/19 12:03:22;;;;;;;3.03;1.50;;;7.60;82.10;;;;;;5055992;28;20513;-86
2022/02/19 12:06:15;;;;;;;3.50;1.60;;;8.00;81.20;;;;;;5056455;28;20405;-86
2022/02/19 12:08:51;;;;;;;4.10;1.47;;;8.00;80.90;;;;;;5056823;28;20413;-86
2022/02/19 12:11:21;;;;;;;7.03;1.40;;;7.90;80.70;;;;;;5056674;28;20786;-86
2022/02/19 12:13:52;;;;;;;4.50;2.03;;;7.80;80.50;;;;;;5057013;28;20457;-85
2022/02/19 12:16:34;;;;;;;9.70;2.10;;;7.80;80.70;;;;;;5075518;28;20875;-85
2022/02/19 12:19:18;;;;;;;4.40;1.33;;;7.90;80.70;;;;;;5074776;28;20410;-86
2022/02/19 12:21:46;;;;;;;3.93;1.57;;;8.00;80.50;;;;;;5061577;28;20436;-86
2022/02/19 12:24:12;;;;;;;1.77;0.90;;;8.00;80.40;;;;;;5056175;28;20409;-86
2022/02/19 12:27:05;;;;;;;5.23;1.80;;;7.90;79.90;;;;;;5057205;28;20417;-85
2022/02/19 12:29:38;;;;;;;2.60;1.37;;;7.90;80.10;;;;;;5056333;28;20413;-85
2022/02/19 12:32:14;;;;;;;8.43;2.03;;;7.90;79.10;;;;;;5055966;28;21017;-84
2022/02/19 12:34:48;;;;;;;4.07;2.33;;;7.90;79.50;;;;;;5055822;28;21216;-85
2022/02/19 12:37:13;;;;;;;7.63;2.00;;;7.80;80.00;;;;;;5055423;28;20500;-86
2022/02/19 12:39:53;;;;;;;3.73;2.50;;;7.90;79.40;;;;;;5055429;28;20437;-85
2022/02/19 12:42:30;;;;;;;6.03;1.40;;;7.90;79.10;;;;;;5055454;28;20199;-85
2022/02/19 12:45:06;;;;;;;5.27;1.47;;;7.90;78.70;;;;;;5073085;28;20392;-86
2022/02/19 12:47:33;;;;;;;5.60;1.40;;;7.70;78.40;;;;;;5055618;28;20413;-86
2022/02/19 12:49:58;;;;;;;4.27;1.40;;;7.70;78.90;;;;;;5055458;28;20478;-86
2022/02/19 12:52:24;;;;;;;6.13;1.53;;;7.70;78.50;;;;;;5073096;28;20441;-86
2022/02/19 12:54:50;;;;;;;6.43;1.70;;;7.70;79.30;;;;;;5054891;28;20231;-86
2022/02/19 12:57:19;;;;;;;4.63;1.53;;;7.70;79.50;;;;;;5054947;28;20195;-86
2022/02/19 12:59:45;;;;;;;2.57;1.60;;;7.70;79.80;;;;;;5073208;28;20494;-85
2022/02/19 13:02:12;;;;;;;2.80;1.73;;;7.70;78.70;;;;;;5055242;28;20436;-85
2022/02/19 13:04:42;;;;;;;5.00;1.70;;;7.70;78.90;;;;;;5054919;28;20928;-86